Time;durP1;ratioP1;P1;durP2;ratioP2;P2;SDS_P1;SDS_P2;PMS_P1;PMS_P2;Temp;Humidity;BMP_temperature;BMP_pressure;BME280_temperature;BME280_humidity;BME280_pressure;Samples;Min_cycle;Max_cycle;Signal;HPM_P1;HPM_P2
2022/01/18 00:00:04;;;;;;;24.85;4.50;;;;;;;10.90;58.62;102902.53;6090533;23;122624;-84
2022/01/18 00:02:30;;;;;;;24.35;4.57;;;;;;;10.84;58.63;102893.91;6090508;23;120154;-88
2022/01/18 00:04:55;;;;;;;20.60;4.15;;;;;;;10.73;59.07;102885.72;6017030;23;119740;-88
2022/01/18 00:07:21;;;;;;;19.00;3.53;;;;;;;10.87;58.88;102901.34;6041090;23;119456;-85
2022/01/18 00:09:48;;;;;;;23.15;3.90;;;;;;;10.88;58.85;102902.13;6040249;23;120390;-88
2022/01/18 00:15:28;;;;;;;20.55;4.38;;;;;;;10.89;58.92;102912.72;6069862;23;122470;-86
2022/01/18 00:17:54;;;;;;;24.17;4.18;;;;;;;10.84;59.45;102899.38;6091071;23;119698;-88
2022/01/18 00:20:34;;;;;;;20.40;3.95;;;;;;;10.91;59.36;102909.59;6039014;23;122661;-86
2022/01/18 00:23:00;;;;;;;20.05;3.75;;;;;;;10.82;59.29;102901.75;6089086;23;120059;-87
2022/01/18 00:25:26;;;;;;;23.58;4.25;;;;;;;10.91;59.68;102904.09;6065369;23;119643;-88
2022/01/18 00:28:09;;;;;;;19.15;4.18;;;;;;;11.00;59.89;102929.94;6069544;23;120207;-87
2022/01/18 00:33:21;;;;;;;22.83;3.72;;;;;;;10.94;59.86;102909.56;6063981;23;120049;-85
2022/01/18 00:35:51;;;;;;;25.98;6.78;;;;;;;10.92;59.36;102909.19;6090856;23;119342;-87
2022/01/18 00:41:01;;;;;;;17.20;4.05;;;;;;;10.92;60.03;102922.91;6068234;23;122565;-90
2022/01/18 00:43:27;;;;;;;23.88;4.30;;;;;;;10.93;60.06;102918.22;6066779;23;123129;-91
2022/01/18 00:45:52;;;;;;;21.27;6.35;;;;;;;10.86;59.88;102913.50;6094276;23;119389;-87
2022/01/18 00:48:18;;;;;;;17.95;3.33;;;;;;;10.99;60.21;102933.88;6094273;23;119595;-88
2022/01/18 00:50:45;;;;;;;18.45;3.83;;;;;;;11.00;59.95;102943.66;6042776;23;120292;-87
2022/01/18 00:53:15;;;;;;;16.67;4.22;;;;;;;10.88;59.71;102922.13;6067734;23;119489;-85
2022/01/18 00:55:51;;;;;;;24.73;7.75;;;;;;;10.91;59.80;102928.81;6043211;23;121399;-90
2022/01/18 00:58:17;;;;;;;21.17;3.88;;;;;;;10.92;60.08;102925.66;6097269;23;120442;-88
2022/01/18 01:00:42;;;;;;;17.05;4.28;;;;;;;10.81;59.78;102905.69;6043688;23;122251;-89
2022/01/18 01:03:10;;;;;;;19.73;3.40;;;;;;;10.72;59.91;102894.34;6042434;23;123286;-90
2022/01/18 01:05:36;;;;;;;21.60;5.40;;;;;;;10.82;59.79;102912.72;6094297;23;120054;-84
2022/01/18 01:08:02;;;;;;;18.70;4.00;;;;;;;10.82;59.61;102912.72;6043302;23;119639;-87
2022/01/18 01:10:29;;;;;;;19.45;3.70;;;;;;;11.03;59.94;102944.84;6067930;23;120371;-88
2022/01/18 01:13:00;;;;;;;20.85;3.78;;;;;;;10.82;60.14;102917.44;6066843;23;119610;-90
2022/01/18 01:15:28;;;;;;;24.60;3.92;;;;;;;10.72;60.20;102919.84;6068138;23;120273;-86
2022/01/18 01:18:11;;;;;;;18.52;3.30;;;;;;;10.74;60.57;102916.69;6093200;23;120117;-87
2022/01/18 01:44:48;;;;;;;18.33;3.53;;;;;;;11.02;60.41;102966.03;6096474;23;119602;-87
2022/01/18 01:47:19;;;;;;;19.08;3.00;;;;;;;11.06;60.52;102975.03;6093763;23;120361;-87
2022/01/18 01:49:49;;;;;;;17.83;3.60;;;;;;;11.08;60.78;102978.16;6067590;23;122237;-85
2022/01/18 01:52:15;;;;;;;14.80;2.95;;;;;;;11.11;61.67;102981.28;6065886;23;121433;-88
2022/01/18 01:54:41;;;;;;;17.77;2.80;;;;;;;11.10;61.24;102964.03;6094040;23;119779;-88
2022/01/18 01:57:09;;;;;;;11.93;2.40;;;;;;;11.16;60.62;102984.44;6042945;23;120945;-85
2022/01/18 01:59:35;;;;;;;13.93;2.70;;;;;;;11.16;60.48;102981.69;6017762;23;122840;-87
2022/01/18 02:02:01;;;;;;;18.27;3.35;;;;;;;11.17;60.31;102979.72;6042317;23;120132;-87
2022/01/18 02:04:27;;;;;;;20.08;2.80;;;;;;;11.06;60.38;102963.25;6093632;23;119318;-89
2022/01/18 02:06:52;;;;;;;15.80;2.60;;;;;;;11.10;60.87;102955.78;6071886;23;119859;-87
2022/01/18 02:09:18;;;;;;;13.93;2.67;;;;;;;11.19;60.43;102969.09;6067742;23;121981;-88
2022/01/18 02:11:45;;;;;;;11.95;2.50;;;;;;;11.18;60.32;102973.03;6066965;23;120396;-86
2022/01/18 02:14:16;;;;;;;16.08;2.85;;;;;;;11.19;60.65;102975.38;6067406;23;119987;-88
2022/01/18 02:22:11;;;;;;;16.25;3.22;;;;;;;11.20;60.65;102974.19;6066542;23;119311;-88
2022/01/18 02:24:40;;;;;;;19.40;3.60;;;;;;;11.22;60.91;102984.78;6067688;23;122372;-85
2022/01/18 02:27:06;;;;;;;15.60;3.20;;;;;;;11.19;60.75;102983.63;6066720;23;121994;-84
2022/01/18 02:29:32;;;;;;;19.05;2.95;;;;;;;11.16;60.93;102969.91;6047690;23;120384;-89
2022/01/18 02:31:58;;;;;;;13.65;2.92;;;;;;;11.14;60.88;102975.03;6040642;23;123855;-86
2022/01/18 02:34:24;;;;;;;16.80;3.13;;;;;;;11.17;61.23;102990.72;6064962;23;119497;-88
2022/01/18 02:36:53;;;;;;;16.45;3.35;;;;;;;11.20;61.22;103004.44;6066138;23;122356;-88
2022/01/18 02:39:28;;;;;;;19.65;3.20;;;;;;;11.19;61.09;102993.84;6017665;23;122599;-81
2022/01/18 02:42:00;;;;;;;14.45;3.25;;;;;;;11.20;61.11;102985.19;6066060;23;119878;-89
2022/01/18 02:44:30;;;;;;;20.00;3.22;;;;;;;11.19;61.13;102972.63;6065647;23;122650;-89
2022/01/18 02:46:57;;;;;;;17.40;3.92;;;;;;;10.99;61.34;102938.56;6090090;23;123060;-86
2022/01/18 02:49:22;;;;;;;19.88;3.65;;;;;;;11.18;61.45;102962.06;6018289;23;119915;-88
2022/01/18 02:51:49;;;;;;;21.45;3.92;;;;;;;11.26;61.67;102963.56;6071664;23;119382;-86
2022/01/18 02:54:17;;;;;;;14.93;3.20;;;;;;;11.18;61.32;102953.81;6066725;23;119662;-84
2022/01/18 02:57:00;;;;;;;14.25;3.25;;;;;;;11.29;61.33;102965.53;6042727;23;122873;-89
2022/01/18 02:59:32;;;;;;;14.17;3.20;;;;;;;11.13;61.77;102945.97;6093370;23;119969;-90
2022/01/18 03:04:51;;;;;;;16.30;3.47;;;;;;;11.26;61.91;102942.38;6036528;23;119317;-89
2022/01/18 03:07:16;;;;;;;20.63;3.70;;;;;;;11.21;61.67;102931.81;6066380;23;122464;-89
2022/01/18 03:09:42;;;;;;;15.65;3.42;;;;;;;11.30;61.55;102945.88;6067371;23;119605;-86
2022/01/18 03:12:09;;;;;;;17.75;3.38;;;;;;;11.30;61.83;102945.09;6071253;23;119349;-85
2022/01/18 03:14:38;;;;;;;17.67;3.40;;;;;;;11.18;62.05;102931.84;6042502;23;119529;-88
2022/01/18 03:17:04;;;;;;;15.73;3.42;;;;;;;11.16;61.83;102923.22;6067221;23;122067;-87
2022/01/18 03:19:30;;;;;;;16.48;3.40;;;;;;;11.16;62.10;102921.25;6066580;23;123878;-86
2022/01/18 03:21:56;;;;;;;20.75;4.18;;;;;;;11.23;61.83;102945.16;6042662;23;119588;-90
2022/01/18 03:29:38;;;;;;;;;;;;;;;11.35;62.08;102978.44;6067224;23;120028;-89
2022/01/18 03:32:07;;;;;;;21.58;3.55;;;;;;;11.37;62.93;102980.81;6042258;23;119492;-87
2022/01/18 03:34:36;;;;;;;24.95;3.70;;;;;;;11.40;62.97;102980.00;6097545;23;120249;-89
2022/01/18 03:37:06;;;;;;;22.92;3.70;;;;;;;11.24;62.91;102965.94;6066685;23;122777;-89
2022/01/18 03:39:32;;;;;;;19.60;4.50;;;;;;;11.43;62.97;102983.91;6065983;23;122867;-87
2022/01/18 03:42:21;;;;;;;25.52;4.20;;;;;;;11.24;62.96;102961.22;6091174;23;120055;-86
2022/01/18 03:44:45;;;;;;;25.35;4.13;;;;;;;11.36;62.78;102974.53;6041970;23;121756;-88
2022/01/18 03:47:13;;;;;;;20.15;4.05;;;;;;;11.41;63.17;102976.06;6065641;23;122962;-89
2022/01/18 03:49:39;;;;;;;27.42;4.78;;;;;;;11.47;63.64;102979.19;6066605;23;119424;-85
2022/01/18 03:52:05;;;;;;;29.25;5.18;;;;;;;11.50;63.45;102979.16;6091451;23;119405;-87
2022/01/18 03:54:30;;;;;;;30.45;5.22;;;;;;;11.54;63.22;102987.38;6064828;23;122183;-88
2022/01/18 03:56:56;;;;;;;27.67;5.47;;;;;;;11.56;63.34;103002.28;6071538;23;119624;-81
2022/01/18 03:59:21;;;;;;;28.52;5.40;;;;;;;11.52;63.15;102990.53;6066731;23;120327;-88
2022/01/18 04:01:47;;;;;;;28.33;5.78;;;;;;;11.54;63.48;102998.38;6094573;23;120097;-89
2022/01/18 04:04:13;;;;;;;31.23;5.90;;;;;;;11.38;63.66;102976.88;6092789;23;120000;-89
2022/01/18 04:06:38;;;;;;;32.10;6.15;;;;;;;11.57;63.84;103009.34;6067791;23;120270;-89
2022/01/18 04:09:04;;;;;;;36.30;6.88;;;;;;;11.37;63.62;102975.31;6043768;23;119577;-88
2022/01/18 04:11:33;;;;;;;45.00;6.72;;;;;;;11.59;63.90;103023.50;6067765;23;120280;-89
2022/01/18 04:14:01;;;;;;;39.33;7.40;;;;;;;11.45;63.77;102996.06;6042898;23;123275;-89
2022/01/18 04:16:26;;;;;;;45.05;7.72;;;;;;;11.52;63.70;103020.75;6068617;23;119607;-89
2022/01/18 04:29:13;;;;;;;45.05;8.23;;;;;;;11.29;63.77;103023.22;6066919;23;119564;-85
2022/01/18 04:31:38;;;;;;;48.00;8.43;;;;;;;11.26;64.15;103013.03;6067360;23;122752;-86
2022/01/18 04:34:04;;;;;;;40.70;7.13;;;;;;;11.24;63.96;103020.88;6066101;23;120361;-86
2022/01/18 04:36:30;;;;;;;35.95;7.00;;;;;;;11.25;64.04;103019.72;6042989;23;119559;-86
2022/01/18 04:38:56;;;;;;;37.55;7.43;;;;;;;11.26;63.72;103018.53;6068299;23;119586;-90
2022/01/18 04:41:27;;;;;;;39.90;6.93;;;;;;;11.28;63.94;103016.94;6097467;23;120546;-90
2022/01/18 04:49:11;;;;;;;46.13;7.45;;;;;;;11.27;63.59;103022.84;6068312;23;119865;-88
2022/01/18 04:51:37;;;;;;;44.25;7.25;;;;;;;11.18;63.62;103004.03;6068553;23;119365;-91
2022/01/18 04:54:06;;;;;;;40.42;7.43;;;;;;;11.00;63.50;102976.63;6067291;23;121443;-90
2022/01/18 04:59:09;;;;;;;46.67;7.55;;;;;;;11.26;63.24;103013.81;6068442;23;122177;-88
2022/01/18 05:01:37;;;;;;;40.92;6.75;;;;;;;11.26;63.18;103013.81;6067587;23;123967;-90
2022/01/18 05:04:03;;;;;;;41.10;7.15;;;;;;;11.22;63.06;103012.25;6098792;23;119471;-90
2022/01/18 05:06:29;;;;;;;38.50;7.00;;;;;;;11.17;63.13;103007.19;6091958;23;120335;-90
2022/01/18 05:08:56;;;;;;;34.83;7.18;;;;;;;10.99;63.32;102988.00;6043722;23;119485;-89
2022/01/18 05:11:24;;;;;;;40.85;7.13;;;;;;;10.96;62.98;102991.56;6094735;23;119461;-90
2022/01/18 05:21:34;;;;;;;45.35;7.53;;;;;;;11.05;63.07;103013.88;6093443;23;120297;-90
2022/01/18 05:24:01;;;;;;;44.10;7.30;;;;;;;11.13;62.52;103026.44;6023626;23;119772;-89
2022/01/18 05:26:28;;;;;;;34.80;6.72;;;;;;;11.10;63.04;103020.94;6017867;23;123224;-88
2022/01/18 05:28:57;;;;;;;39.13;6.88;;;;;;;11.07;62.91;103034.28;6094391;23;119445;-87
2022/01/18 05:31:24;;;;;;;44.45;7.25;;;;;;;10.94;62.85;103007.66;6042967;23;122120;-85
2022/01/18 05:34:00;;;;;;;37.38;6.50;;;;;;;10.80;62.37;103002.19;6066811;23;119988;-88
2022/01/18 05:36:25;;;;;;;48.22;7.25;;;;;;;10.82;62.78;103003.34;6042734;23;120195;-88
2022/01/18 05:38:53;;;;;;;38.55;6.75;;;;;;;10.76;62.95;102996.69;6043734;23;119499;-87
2022/01/18 05:41:19;;;;;;;45.53;6.60;;;;;;;10.83;62.99;102993.91;6091260;23;120049;-86
2022/01/18 05:43:47;;;;;;;34.97;6.47;;;;;;;10.98;63.02;103024.88;6092045;23;119542;-84
2022/01/18 05:46:12;;;;;;;41.30;6.93;;;;;;;10.87;62.69;103013.91;6071770;23;120168;-85
2022/01/18 05:48:38;;;;;;;31.70;6.22;;;;;;;10.90;62.74;103012.38;6042861;23;120197;-86
2022/01/18 05:51:09;;;;;;;38.30;7.10;;;;;;;10.94;62.66;103024.91;6069104;23;119647;-84
2022/01/18 05:53:35;;;;;;;42.25;6.25;;;;;;;10.93;62.96;103028.84;6041515;23;122560;-87
2022/01/18 05:56:03;;;;;;;35.08;6.45;;;;;;;10.86;62.80;103012.34;6067899;23;119642;-88
2022/01/18 05:58:28;;;;;;;29.58;6.13;;;;;;;10.90;62.55;103026.88;6042850;23;122072;-88
2022/01/18 06:00:55;;;;;;;32.28;7.20;;;;;;;10.88;62.91;103020.97;6067192;23;123295;-84
2022/01/18 06:03:39;;;;;;;31.35;5.72;;;;;;;11.01;62.71;103041.34;6018453;23;120503;-88
2022/01/18 06:08:49;;;;;;;;;;;;;;;11.04;62.84;103026.03;6072463;23;122738;-88
2022/01/18 06:11:14;;;;;;;29.70;6.18;;;;;;;11.05;63.06;103030.34;6018873;23;122559;-88
2022/01/18 06:13:43;;;;;;;36.05;6.50;;;;;;;11.02;62.99;103014.69;6017632;23;123318;-84
2022/01/18 06:16:08;;;;;;;28.02;6.05;;;;;;;11.04;63.16;103009.56;6018251;23;119808;-86
2022/01/18 06:18:34;;;;;;;32.72;6.15;;;;;;;11.17;63.05;103021.72;6042016;23;122513;-87
2022/01/18 06:21:00;;;;;;;29.83;5.60;;;;;;;11.24;62.99;103035.41;6065417;23;119852;-87
2022/01/18 06:23:25;;;;;;;31.08;5.47;;;;;;;11.25;63.09;103022.47;6065442;23;119522;-88
2022/01/18 06:25:51;;;;;;;32.28;5.07;;;;;;;11.29;62.82;103029.50;6092839;23;119307;-86
2022/01/18 06:28:17;;;;;;;29.85;5.32;;;;;;;11.27;63.03;103025.59;6065695;23;120037;-86
2022/01/18 07:19:38;;;;;;;22.88;4.80;;;;;;;11.38;63.00;103060.09;6092579;23;120688;-88
2022/01/18 07:22:05;;;;;;;18.65;4.03;;;;;;;11.46;62.71;103063.59;6065803;23;119723;-85
2022/01/18 07:24:39;;;;;;;19.52;3.75;;;;;;;11.48;62.33;103065.94;6041317;23;121848;-86
2022/01/18 07:27:06;;;;;;;19.67;4.20;;;;;;;11.41;62.44;103047.53;6090639;23;120829;-87
2022/01/18 07:29:32;;;;;;;26.08;4.47;;;;;;;11.46;62.28;103055.34;6091609;23;119583;-89
2022/01/18 07:31:58;;;;;;;22.50;4.20;;;;;;;11.53;62.58;103069.06;6046387;23;121766;-88
2022/01/18 07:34:24;;;;;;;23.95;4.10;;;;;;;11.61;62.72;103069.84;6042922;23;119778;-86
2022/01/18 07:36:49;;;;;;;22.00;4.90;;;;;;;11.59;62.27;103074.94;6068072;23;120773;-86
2022/01/18 07:39:15;;;;;;;23.38;4.70;;;;;;;11.49;62.17;103057.31;6043134;23;123148;-86
2022/01/18 07:41:41;;;;;;;21.08;4.75;;;;;;;11.65;62.22;103071.38;6043014;23;119474;-89
2022/01/18 07:44:09;;;;;;;23.77;4.93;;;;;;;11.50;62.04;103045.13;6043149;23;120286;-88
2022/01/18 07:46:35;;;;;;;26.33;4.47;;;;;;;11.58;61.93;103051.38;6091966;23;119881;-89
2022/01/18 07:49:00;;;;;;;19.25;3.75;;;;;;;11.73;62.35;103060.34;6094634;23;119698;-88
2022/01/18 07:51:26;;;;;;;20.98;4.22;;;;;;;11.74;62.23;103057.19;6043589;23;122245;-86
2022/01/18 07:53:51;;;;;;;25.70;4.00;;;;;;;11.77;62.01;103056.38;6023293;23;122802;-88
2022/01/18 07:56:17;;;;;;;24.45;3.92;;;;;;;11.80;61.89;103063.06;6068149;23;122031;-85
2022/01/18 07:58:42;;;;;;;21.38;3.78;;;;;;;11.88;62.11;103070.13;6043188;23;122993;-87
2022/01/18 08:01:08;;;;;;;15.07;4.32;;;;;;;11.79;62.71;103061.50;6094476;23;120334;-84
2022/01/18 08:03:33;;;;;;;16.70;3.58;;;;;;;11.91;62.06;103075.59;6042322;23;119640;-84
2022/01/18 08:06:01;;;;;;;23.40;3.40;;;;;;;11.90;61.66;103073.25;6042680;23;123078;-87
2022/01/18 08:08:26;;;;;;;21.45;3.83;;;;;;;11.90;62.41;103063.03;6092306;23;119846;-86
2022/01/18 08:10:52;;;;;;;21.65;3.63;;;;;;;11.97;62.20;103059.44;6067408;23;122162;-86
2022/01/18 08:13:22;;;;;;;17.90;4.05;;;;;;;12.05;62.07;103069.22;6041923;23;123011;-83
2022/01/18 08:15:57;;;;;;;21.60;4.20;;;;;;;12.08;62.27;103064.91;6072457;23;119877;-87
2022/01/18 08:18:23;;;;;;;22.80;4.25;;;;;;;12.10;61.94;103068.03;6066658;23;122605;-86
2022/01/18 08:20:48;;;;;;;25.80;3.80;;;;;;;11.99;62.44;103054.31;6091881;23;120090;-87
2022/01/18 08:23:16;;;;;;;21.48;4.13;;;;;;;12.07;62.49;103064.13;6067150;23;123003;-83
2022/01/18 08:25:44;;;;;;;17.63;3.75;;;;;;;12.06;62.67;103065.28;6042536;23;120263;-86
2022/01/18 08:28:09;;;;;;;25.65;4.25;;;;;;;12.06;62.45;103070.00;6092336;23;120289;-87
2022/01/18 08:30:35;;;;;;;20.92;3.83;;;;;;;12.08;62.68;103073.16;6061795;23;121621;-85
2022/01/18 08:33:01;;;;;;;20.65;4.30;;;;;;;12.04;62.91;103062.16;6061046;23;123099;-85
2022/01/18 08:35:26;;;;;;;20.92;4.50;;;;;;;12.13;63.02;103075.47;6088226;23;119440;-85
2022/01/18 08:37:52;;;;;;;17.80;4.22;;;;;;;12.07;63.09;103077.88;6043774;23;122117;-86
2022/01/18 08:40:18;;;;;;;21.30;4.70;;;;;;;11.84;63.03;103045.41;6087996;23;120033;-83
2022/01/18 08:42:44;;;;;;;23.42;4.60;;;;;;;12.09;63.11;103088.47;6063387;23;119958;-85
2022/01/18 08:45:10;;;;;;;29.05;5.00;;;;;;;12.11;63.33;103089.66;6062486;23;123413;-83
2022/01/18 08:47:36;;;;;;;29.67;4.30;;;;;;;12.08;63.51;103073.94;6089011;23;120433;-84
2022/01/18 08:50:04;;;;;;;25.38;4.20;;;;;;;11.90;63.75;103051.25;6063446;23;119432;-83
2022/01/18 08:52:29;;;;;;;22.90;4.03;;;;;;;12.07;63.72;103075.13;6038480;23;124120;-86
2022/01/18 08:54:55;;;;;;;21.63;4.15;;;;;;;11.88;63.52;103046.16;6038848;23;119691;-84
2022/01/18 08:57:20;;;;;;;19.55;3.72;;;;;;;12.13;63.64;103086.47;6039199;23;121632;-86
2022/01/18 08:59:47;;;;;;;15.80;3.33;;;;;;;12.18;63.12;103095.09;6067878;23;122899;-84
2022/01/18 09:02:13;;;;;;;17.30;3.20;;;;;;;12.08;62.96;103075.91;6062483;23;122352;-87
2022/01/18 09:04:39;;;;;;;14.60;3.30;;;;;;;12.10;63.21;103081.78;6062770;23;123214;-85
2022/01/18 09:07:08;;;;;;;12.25;2.55;;;;;;;12.13;63.26;103095.53;6063480;23;119406;-85
2022/01/18 09:09:40;;;;;;;15.27;3.35;;;;;;;12.15;63.35;103095.91;6063133;23;121658;-84
2022/01/18 09:12:08;;;;;;;20.75;3.03;;;;;;;12.23;63.36;103108.41;6061796;23;123808;-86
2022/01/18 09:14:34;;;;;;;18.63;3.25;;;;;;;12.20;63.51;103108.44;6063292;23;119700;-84
2022/01/18 09:16:59;;;;;;;18.02;3.65;;;;;;;12.13;63.38;103098.28;6063287;23;121207;-85
2022/01/18 09:19:25;;;;;;;14.93;2.60;;;;;;;12.23;63.52;103116.69;6088856;23;120258;-86
2022/01/18 09:21:51;;;;;;;13.77;2.55;;;;;;;12.22;64.11;103123.38;6068243;23;119721;-83
2022/01/18 09:24:17;;;;;;;12.10;2.70;;;;;;;12.20;64.56;103114.72;6086220;23;120281;-84
2022/01/18 09:26:43;;;;;;;11.15;2.55;;;;;;;12.27;63.47;103135.91;6038704;23;119624;-85
2022/01/18 09:29:10;;;;;;;15.63;2.95;;;;;;;12.23;63.22;103135.94;6063704;23;120007;-87
2022/01/18 09:31:41;;;;;;;9.48;2.13;;;;;;;12.22;63.00;103141.84;6038400;23;124177;-86
2022/01/18 09:34:08;;;;;;;9.10;1.90;;;;;;;12.20;62.85;103147.75;6062989;23;119688;-84
2022/01/18 09:36:33;;;;;;;11.10;2.78;;;;;;;12.00;62.77;103121.91;6063349;23;120212;-85
2022/01/18 09:38:59;;;;;;;10.57;2.00;;;;;;;12.14;62.76;103141.09;6038657;23;123125;-82
2022/01/18 09:41:29;;;;;;;10.07;2.05;;;;;;;12.21;63.34;103141.06;6020228;23;120025;-87
2022/01/18 09:43:56;;;;;;;12.57;2.33;;;;;;;12.20;63.50;103147.75;6038079;23;123194;-88
2022/01/18 09:46:26;;;;;;;11.57;2.20;;;;;;;12.23;63.19;103152.44;6063743;23;119843;-83
2022/01/18 09:48:56;;;;;;;9.93;2.08;;;;;;;12.19;64.35;103143.44;6090144;23;120266;-87
2022/01/18 09:51:25;;;;;;;8.18;1.83;;;;;;;12.23;64.43;103130.44;6063272;23;123051;-88
2022/01/18 09:53:51;;;;;;;7.68;1.90;;;;;;;12.11;63.62;103110.88;6063155;23;119536;-86
2022/01/18 09:56:17;;;;;;;8.15;1.70;;;;;;;12.43;64.03;103149.19;6063372;23;121903;-83
2022/01/18 09:58:44;;;;;;;7.45;2.17;;;;;;;12.45;63.23;103155.88;6014414;23;122925;-86
2022/01/18 10:01:10;;;;;;;8.30;1.83;;;;;;;12.38;64.68;103144.13;6039245;23;119541;-86
2022/01/18 10:03:38;;;;;;;7.43;2.17;;;;;;;12.39;63.93;103138.22;6042365;23;122061;-86
2022/01/18 10:06:05;;;;;;;10.40;1.65;;;;;;;12.42;63.26;103156.66;6064244;23;119654;-85
2022/01/18 10:08:31;;;;;;;4.93;1.23;;;;;;;12.42;62.99;103153.13;6064238;23;119507;-87
2022/01/18 10:11:02;;;;;;;5.45;1.38;;;;;;;12.37;63.25;103139.81;6038451;23;122890;-86
2022/01/18 10:13:31;;;;;;;7.20;1.50;;;;;;;12.45;62.94;103149.56;6063574;23;119802;-85
2022/01/18 10:16:04;;;;;;;7.80;1.70;;;;;;;12.42;63.25;103142.13;6064056;23;122148;-86
2022/01/18 10:18:43;;;;;;;9.35;1.65;;;;;;;12.43;62.90;103144.47;6063262;23;123194;-86
2022/01/18 10:21:10;;;;;;;8.45;1.80;;;;;;;12.49;63.11;103153.88;6086785;23;119726;-88
2022/01/18 10:23:37;;;;;;;6.43;1.60;;;;;;;12.44;62.97;103137.00;6004681;23;121687;-83
2022/01/18 10:26:21;;;;;;;6.38;1.58;;;;;;;12.44;64.04;103137.00;6062887;23;120091;-87
2022/01/18 10:28:47;;;;;;;7.10;1.55;;;;;;;12.54;64.33;103149.91;6063198;23;122032;-87
2022/01/18 10:31:34;;;;;;;3.42;1.30;;;;;;;12.59;65.29;103146.72;6062628;23;120643;-87
2022/01/18 10:37:04;;;;;;;6.43;1.70;;;;;;;12.67;63.89;103150.22;6070481;23;120139;-86
2022/01/18 10:39:33;;;;;;;5.35;1.42;;;;;;;12.56;64.65;103131.03;6062925;23;123287;-86
2022/01/18 10:42:01;;;;;;;4.20;1.73;;;;;;;12.67;63.29;103152.97;6088530;23;119846;-89
2022/01/18 10:44:31;;;;;;;2.20;1.27;;;;;;;12.65;63.03;103155.34;6063278;23;119582;-89
2022/01/18 10:46:58;;;;;;;5.93;1.70;;;;;;;12.67;62.53;103159.25;6013845;23;123308;-88
2022/01/18 10:49:27;;;;;;;5.13;1.60;;;;;;;12.68;62.56;103163.56;6067766;23;119414;-85
2022/01/18 10:52:21;;;;;;;2.45;1.45;;;;;;;12.70;64.43;103158.44;6088274;23;120748;-89
2022/01/18 10:54:56;;;;;;;4.50;1.40;;;;;;;12.69;63.80;103151.38;6063046;23;119704;-88
2022/01/18 10:57:25;;;;;;;4.30;1.48;;;;;;;12.73;63.99;103159.59;6014637;23;122419;-88
2022/01/18 10:59:57;;;;;;;5.72;1.67;;;;;;;12.79;63.69;103145.00;6061893;23;123190;-85
2022/01/18 11:02:23;;;;;;;4.65;1.52;;;;;;;12.81;63.26;103142.63;6062763;23;119762;-87
2022/01/18 11:04:54;;;;;;;3.08;1.17;;;;;;;12.79;64.85;103135.97;6063702;23;122135;-87
2022/01/18 11:07:23;;;;;;;2.47;1.10;;;;;;;13.00;64.40;103146.78;6062927;23;120625;-88
2022/01/18 11:09:49;;;;;;;2.90;1.08;;;;;;;13.07;65.21;103137.69;6039733;23;119754;-85
2022/01/18 11:12:15;;;;;;;2.53;0.95;;;;;;;13.09;64.67;103149.84;6068086;23;121983;-85
2022/01/18 11:14:49;;;;;;;1.35;0.63;;;;;;;13.05;63.32;103129.81;6090674;23;119468;-84
2022/01/18 11:17:22;;;;;;;1.95;0.80;;;;;;;13.04;62.08;103133.00;6064298;23;120529;-87
2022/01/18 11:19:50;;;;;;;1.63;0.55;;;;;;;13.00;63.66;103127.50;6062907;23;120099;-89
2022/01/18 11:22:15;;;;;;;0.60;0.52;;;;;;;12.83;62.67;103111.91;6039765;23;119681;-86
2022/01/18 11:24:43;;;;;;;1.50;0.43;;;;;;;12.91;61.99;103135.44;6090778;23;120343;-87
2022/01/18 11:27:14;;;;;;;0.60;0.40;;;;;;;12.93;61.77;103135.81;6039339;23;122755;-86
2022/01/18 11:29:46;;;;;;;0.75;0.40;;;;;;;12.88;61.66;103128.78;6039727;23;119751;-86
2022/01/18 11:32:14;;;;;;;0.40;0.40;;;;;;;12.59;61.38;103089.69;6063571;23;122239;-87
2022/01/18 11:35:11;;;;;;;0.98;0.40;;;;;;;12.83;61.53;103139.47;6093235;23;120054;-83
2022/01/18 11:37:57;;;;;;;1.02;0.50;;;;;;;12.77;61.88;103147.34;6039793;23;122871;-88
2022/01/18 11:40:24;;;;;;;2.03;0.65;;;;;;;12.72;63.27;103144.25;6063682;23;122549;-89
2022/01/18 11:42:54;;;;;;;1.95;0.52;;;;;;;12.66;62.87;103132.91;6090427;23;120162;-87
2022/01/18 11:45:35;;;;;;;1.33;0.60;;;;;;;12.60;61.31;103142.78;6039626;23;122497;-87
2022/01/18 11:48:11;;;;;;;1.55;0.80;;;;;;;12.55;63.24;103134.97;6064085;23;122437;-86
2022/01/18 11:51:14;;;;;;;1.00;0.50;;;;;;;12.62;63.70;103140.41;6090999;23;119795;-88
2022/01/18 11:54:16;;;;;;;1.58;0.70;;;;;;;12.65;64.78;103147.88;6039225;23;121955;-86
2022/01/18 11:56:37;;;;;;;1.48;0.50;;;;;;;12.69;63.50;103145.06;6066745;23;123929;-86
2022/01/18 11:59:18;;;;;;;1.52;0.93;;;;;;;12.73;65.02;103146.59;6015749;23;122352;-89
2022/01/18 12:01:48;;;;;;;1.75;0.70;;;;;;;12.79;63.00;103145.00;6014505;23;122630;-88
2022/01/18 12:04:49;;;;;;;2.45;0.90;;;;;;;12.94;62.86;103155.91;6064021;23;119753;-88
2022/01/18 12:07:33;;;;;;;6.18;1.00;;;;;;;12.98;63.71;103145.63;6088715;23;120550;-88
2022/01/18 12:10:06;;;;;;;2.00;0.88;;;;;;;13.03;63.90;103131.44;6039139;23;123305;-87
2022/01/18 12:12:41;;;;;;;3.80;1.20;;;;;;;13.03;62.91;103153.47;6063952;23;120344;-86
2022/01/18 12:15:16;;;;;;;5.00;1.30;;;;;;;13.03;62.00;103140.47;6064771;23;119791;-90
2022/01/18 12:17:52;;;;;;;5.28;1.90;;;;;;;13.07;63.38;103151.47;6038680;23;123107;-88
2022/01/18 12:20:46;;;;;;;5.78;2.38;;;;;;;13.08;62.37;103148.28;6020210;23;120260;-88
2022/01/18 12:23:20;;;;;;;5.70;2.07;;;;;;;13.03;62.46;103142.44;6089659;23;119904;-86
2022/01/18 12:26:02;;;;;;;6.63;2.60;;;;;;;12.96;62.21;103145.25;6064699;23;120323;-87
2022/01/18 12:34:29;;;;;;;4.93;2.25;;;;;;;13.07;63.29;103140.44;6064606;23;120368;-87
2022/01/18 12:37:07;;;;;;;8.70;2.50;;;;;;;13.03;63.82;103136.94;6066184;23;119818;-88
2022/01/18 12:40:05;;;;;;;5.15;2.20;;;;;;;13.05;65.15;103138.09;6040205;23;123508;-88
2022/01/18 12:45:15;;;;;;;4.90;2.40;;;;;;;13.05;64.27;103129.03;6094330;23;119442;-86
2022/01/18 12:47:59;;;;;;;8.52;2.45;;;;;;;13.11;65.35;103121.91;6016815;23;119922;-89
2022/01/18 12:50:39;;;;;;;10.32;2.80;;;;;;;13.11;63.70;103130.16;6090940;23;119739;-89
2022/01/18 12:53:13;;;;;;;11.98;3.25;;;;;;;13.01;63.40;103118.06;6063040;23;123034;-90
2022/01/18 12:55:40;;;;;;;9.50;2.92;;;;;;;13.07;62.77;103127.44;6090436;23;119844;-88
2022/01/18 12:58:28;;;;;;;7.43;2.67;;;;;;;13.13;64.77;103131.31;6039958;23;120654;-85
2022/01/18 13:00:59;;;;;;;9.40;2.45;;;;;;;13.16;63.63;103129.72;6064567;23;123414;-87
2022/01/18 13:03:33;;;;;;;9.65;2.75;;;;;;;13.17;64.21;103131.28;6039650;23;119746;-87
2022/01/18 13:06:00;;;;;;;10.57;2.50;;;;;;;13.15;64.24;103130.91;6064898;23;121378;-86
2022/01/18 13:08:48;;;;;;;9.00;2.15;;;;;;;13.14;63.56;103123.81;6095418;23;120485;-87
2022/01/18 13:11:22;;;;;;;9.02;2.10;;;;;;;13.12;62.69;103128.97;6065106;23;122433;-88
2022/01/18 13:13:56;;;;;;;;;;;;;;;13.08;63.24;103120.75;6088756;23;122762;-88
2022/01/18 13:27:11;;;;;;;12.68;2.50;;;;;;;13.06;63.04;103105.81;6064455;23;120620;-88
2022/01/18 13:29:37;;;;;;;8.48;2.10;;;;;;;13.03;62.94;103103.88;6090057;23;120347;-86
2022/01/18 13:32:16;;;;;;;10.25;2.42;;;;;;;13.04;62.32;103094.41;6044409;23;120331;-84
2022/01/18 13:34:44;;;;;;;13.77;2.70;;;;;;;13.09;64.09;103102.22;6064657;23;121773;-86
2022/01/18 13:37:13;;;;;;;11.15;2.30;;;;;;;13.12;63.11;103102.19;6064043;23;119801;-86
2022/01/18 13:39:44;;;;;;;13.98;2.60;;;;;;;13.10;61.46;103092.78;6064132;23;123132;-88
2022/01/18 13:42:12;;;;;;;10.95;2.20;;;;;;;13.06;62.31;103069.97;6088050;23;120264;-86
2022/01/18 13:44:37;;;;;;;11.55;2.67;;;;;;;13.15;62.05;103082.06;6064323;23;119714;-88
2022/01/18 13:47:22;;;;;;;14.88;2.50;;;;;;;13.09;61.18;103069.94;6063634;23;119809;-88